sensor_id;sensor_type;location;lat;lon;timestamp;pressure;altitude;pressure_sealevel;temperature;humidity
52441;BME280;39611;46.062;8.950;2022-12-17T00:01:58;95777.88;;;1.52;100.00
52441;BME280;39611;46.062;8.950;2022-12-17T00:04:43;95770.22;;;1.74;100.00
52441;BME280;39611;46.062;8.950;2022-12-17T00:07:31;95766.81;;;1.45;100.00
52441;BME280;39611;46.062;8.950;2022-12-17T00:10:17;95779.81;;;1.57;100.00
52441;BME280;39611;46.062;8.950;2022-12-17T00:13:02;95773.63;;;1.46;100.00
52441;BME280;39611;46.062;8.950;2022-12-17T00:15:51;95784.44;;;1.55;100.00
52441;BME280;39611;46.062;8.950;2022-12-17T00:18:36;95787.72;;;1.62;100.00
52441;BME280;39611;46.062;8.950;2022-12-17T00:21:21;95783.41;;;1.56;100.00
52441;BME280;39611;46.062;8.950;2022-12-17T00:24:07;95789.25;;;1.46;100.00
52441;BME280;39611;46.062;8.950;2022-12-17T00:26:52;95801.22;;;1.59;100.00
52441;BME280;39611;46.062;8.950;2022-12-17T00:29:37;95804.22;;;1.79;100.00
52441;BME280;39611;46.062;8.950;2022-12-17T00:32:22;95793.03;;;1.67;100.00
52441;BME280;39611;46.062;8.950;2022-12-17T00:35:21;95802.66;;;1.66;100.00
52441;BME280;39611;46.062;8.950;2022-12-17T00:38:33;95810.81;;;1.70;100.00
52441;BME280;39611;46.062;8.950;2022-12-17T00:41:31;95812.47;;;1.76;100.00
52441;BME280;39611;46.062;8.950;2022-12-17T00:44:16;95813.53;;;1.63;100.00
52441;BME280;39611;46.062;8.950;2022-12-17T00:47:02;95810.13;;;1.74;100.00
52441;BME280;39611;46.062;8.950;2022-12-17T00:49:47;95817.16;;;1.74;100.00
52441;BME280;39611;46.062;8.950;2022-12-17T00:52:32;95814.56;;;1.62;100.00
52441;BME280;39611;46.062;8.950;2022-12-17T00:55:18;95823.28;;;1.68;100.00
52441;BME280;39611;46.062;8.950;2022-12-17T00:58:03;95824.94;;;1.45;100.00
52441;BME280;39611;46.062;8.950;2022-12-17T01:00:48;95805.31;;;1.55;100.00
52441;BME280;39611;46.062;8.950;2022-12-17T01:03:36;95817.34;;;1.44;100.00
52441;BME280;39611;46.062;8.950;2022-12-17T01:09:42;95823.50;;;1.38;100.00
52441;BME280;39611;46.062;8.950;2022-12-17T01:12:28;95829.22;;;1.51;100.00
52441;BME280;39611;46.062;8.950;2022-12-17T01:15:33;95842.25;;;1.51;100.00
52441;BME280;39611;46.062;8.950;2022-12-17T01:18:22;95838.31;;;1.37;100.00
52441;BME280;39611;46.062;8.950;2022-12-17T01:24:27;95857.69;;;1.41;100.00
52441;BME280;39611;46.062;8.950;2022-12-17T01:27:21;95863.34;;;1.50;100.00
52441;BME280;39611;46.062;8.950;2022-12-17T01:30:11;95858.53;;;1.30;100.00
52441;BME280;39611;46.062;8.950;2022-12-17T01:33:04;95864.16;;;1.27;100.00
52441;BME280;39611;46.062;8.950;2022-12-17T01:35:54;95879.47;;;1.35;100.00
52441;BME280;39611;46.062;8.950;2022-12-17T01:38:40;95879.78;;;1.39;100.00
52441;BME280;39611;46.062;8.950;2022-12-17T01:41:25;95874.25;;;1.35;100.00
52441;BME280;39611;46.062;8.950;2022-12-17T01:44:55;95890.56;;;1.30;100.00
52441;BME280;39611;46.062;8.950;2022-12-17T01:47:46;95878.00;;;1.27;100.00
52441;BME280;39611;46.062;8.950;2022-12-17T01:50:37;95883.19;;;1.39;100.00
52441;BME280;39611;46.062;8.950;2022-12-17T01:53:25;95892.38;;;1.42;100.00
52441;BME280;39611;46.062;8.950;2022-12-17T01:56:11;95888.75;;;1.31;100.00
52441;BME280;39611;46.062;8.950;2022-12-17T01:59:11;95897.38;;;1.20;100.00
52441;BME280;39611;46.062;8.950;2022-12-17T02:01:56;95899.63;;;1.40;100.00
52441;BME280;39611;46.062;8.950;2022-12-17T02:04:48;95893.75;;;1.33;100.00
52441;BME280;39611;46.062;8.950;2022-12-17T02:25:00;95917.41;;;1.31;100.00
52441;BME280;39611;46.062;8.950;2022-12-17T02:28:02;95918.09;;;1.38;100.00
52441;BME280;39611;46.062;8.950;2022-12-17T02:30:48;95900.31;;;1.35;100.00
52441;BME280;39611;46.062;8.950;2022-12-17T02:36:56;95918.34;;;1.25;100.00
52441;BME280;39611;46.062;8.950;2022-12-17T02:40:06;95933.38;;;1.35;100.00
52441;BME280;39611;46.062;8.950;2022-12-17T02:43:32;95912.66;;;1.28;100.00
52441;BME280;39611;46.062;8.950;2022-12-17T02:46:21;95926.69;;;1.27;100.00
52441;BME280;39611;46.062;8.950;2022-12-17T02:56:50;95920.69;;;1.26;100.00
52441;BME280;39611;46.062;8.950;2022-12-17T03:00:14;95911.31;;;1.02;100.00
52441;BME280;39611;46.062;8.950;2022-12-17T03:02:59;95913.00;;;0.96;100.00
52441;BME280;39611;46.062;8.950;2022-12-17T03:06:02;95924.34;;;1.02;100.00
52441;BME280;39611;46.062;8.950;2022-12-17T03:12:47;95935.44;;;1.09;100.00
52441;BME280;39611;46.062;8.950;2022-12-17T03:15:33;95935.44;;;1.09;100.00
52441;BME280;39611;46.062;8.950;2022-12-17T03:18:32;95924.97;;;0.85;100.00
52441;BME280;39611;46.062;8.950;2022-12-17T03:21:38;95919.56;;;0.87;100.00
52441;BME280;39611;46.062;8.950;2022-12-17T03:24:50;95927.38;;;0.87;100.00
52441;BME280;39611;46.062;8.950;2022-12-17T03:28:04;95916.28;;;0.92;100.00
52441;BME280;39611;46.062;8.950;2022-12-17T03:30:49;95926.47;;;1.17;100.00
52441;BME280;39611;46.062;8.950;2022-12-17T03:33:35;95943.69;;;1.18;100.00
52441;BME280;39611;46.062;8.950;2022-12-17T03:36:21;95925.13;;;1.26;100.00
52441;BME280;39611;46.062;8.950;2022-12-17T03:39:07;95921.16;;;1.35;100.00
52441;BME280;39611;46.062;8.950;2022-12-17T03:41:52;95920.81;;;1.43;100.00
52441;BME280;39611;46.062;8.950;2022-12-17T03:44:37;95930.22;;;1.33;100.00
52441;BME280;39611;46.062;8.950;2022-12-17T03:47:22;95917.66;;;1.18;100.00
52441;BME280;39611;46.062;8.950;2022-12-17T03:50:07;95922.97;;;1.46;100.00
52441;BME280;39611;46.062;8.950;2022-12-17T03:52:53;95926.25;;;1.53;100.00
52441;BME280;39611;46.062;8.950;2022-12-17T03:55:40;95928.81;;;1.65;100.00
52441;BME280;39611;46.062;8.950;2022-12-17T03:58:25;95936.28;;;1.85;100.00
52441;BME280;39611;46.062;8.950;2022-12-17T04:01:10;95937.75;;;1.81;100.00
52441;BME280;39611;46.062;8.950;2022-12-17T04:03:58;95949.34;;;1.62;100.00
52441;BME280;39611;46.062;8.950;2022-12-17T04:06:46;95937.88;;;1.74;100.00
52441;BME280;39611;46.062;8.950;2022-12-17T04:09:34;95945.16;;;1.61;100.00
52441;BME280;39611;46.062;8.950;2022-12-17T04:12:24;95956.94;;;1.87;100.00
52441;BME280;39611;46.062;8.950;2022-12-17T04:15:10;95952.84;;;1.67;100.00
52441;BME280;39611;46.062;8.950;2022-12-17T04:17:56;95946.97;;;1.72;100.00
52441;BME280;39611;46.062;8.950;2022-12-17T04:20:41;95968.19;;;2.16;99.40
52441;BME280;39611;46.062;8.950;2022-12-17T04:23:31;95958.25;;;2.01;99.13
52441;BME280;39611;46.062;8.950;2022-12-17T04:26:16;95970.00;;;2.15;98.82
52441;BME280;39611;46.062;8.950;2022-12-17T04:29:01;95965.56;;;2.16;100.00
52441;BME280;39611;46.062;8.950;2022-12-17T04:31:46;95970.38;;;1.95;100.00
52441;BME280;39611;46.062;8.950;2022-12-17T04:34:46;95973.50;;;2.21;100.00
52441;BME280;39611;46.062;8.950;2022-12-17T04:37:31;95985.78;;;2.09;95.53
52441;BME280;39611;46.062;8.950;2022-12-17T04:40:23;95984.06;;;2.14;94.68
52441;BME280;39611;46.062;8.950;2022-12-17T04:43:22;95991.22;;;2.07;98.01
52441;BME280;39611;46.062;8.950;2022-12-17T04:46:09;95995.22;;;1.98;100.00
52441;BME280;39611;46.062;8.950;2022-12-17T04:49:18;95992.53;;;2.91;75.08
52441;BME280;39611;46.062;8.950;2022-12-17T04:52:29;96000.75;;;3.50;65.03
52441;BME280;39611;46.062;8.950;2022-12-17T04:58:42;95997.47;;;3.77;65.92
52441;BME280;39611;46.062;8.950;2022-12-17T05:02:44;96012.94;;;4.39;51.89
52441;BME280;39611;46.062;8.950;2022-12-17T05:09:00;96021.75;;;5.09;47.51
52441;BME280;39611;46.062;8.950;2022-12-17T05:12:30;96010.25;;;5.15;46.91
52441;BME280;39611;46.062;8.950;2022-12-17T05:15:36;96011.38;;;4.92;47.72
52441;BME280;39611;46.062;8.950;2022-12-17T05:29:35;96023.41;;;5.20;46.59
52441;BME280;39611;46.062;8.950;2022-12-17T05:32:35;96040.84;;;5.37;43.98
52441;BME280;39611;46.062;8.950;2022-12-17T05:35:20;96051.53;;;5.25;45.43
52441;BME280;39611;46.062;8.950;2022-12-17T05:38:09;96050.06;;;5.07;47.42
52441;BME280;39611;46.062;8.950;2022-12-17T05:40:55;96040.56;;;5.01;47.41
52441;BME280;39611;46.062;8.950;2022-12-17T05:43:41;96044.47;;;4.98;48.28
52441;BME280;39611;46.062;8.950;2022-12-17T05:46:27;96052.72;;;4.85;48.92
52441;BME280;39611;46.062;8.950;2022-12-17T05:49:42;96056.38;;;4.84;49.44
52441;BME280;39611;46.062;8.950;2022-12-17T05:52:48;96061.59;;;4.84;49.34
52441;BME280;39611;46.062;8.950;2022-12-17T05:56:05;96067.06;;;4.77;49.10
52441;BME280;39611;46.062;8.950;2022-12-17T05:58:51;96062.66;;;4.83;46.82
52441;BME280;39611;46.062;8.950;2022-12-17T06:01:57;96075.06;;;4.93;45.93
52441;BME280;39611;46.062;8.950;2022-12-17T06:04:42;96089.09;;;4.81;47.70
52441;BME280;39611;46.062;8.950;2022-12-17T06:07:43;96084.91;;;4.80;47.21
52441;BME280;39611;46.062;8.950;2022-12-17T06:10:49;96081.16;;;4.98;44.33
52441;BME280;39611;46.062;8.950;2022-12-17T06:13:35;96094.44;;;5.14;43.13
52441;BME280;39611;46.062;8.950;2022-12-17T06:16:20;96096.84;;;4.93;45.95
52441;BME280;39611;46.062;8.950;2022-12-17T06:19:05;96088.03;;;5.04;44.74
52441;BME280;39611;46.062;8.950;2022-12-17T06:21:50;96105.72;;;4.92;46.62
52441;BME280;39611;46.062;8.950;2022-12-17T06:24:36;96105.44;;;4.67;49.12
52441;BME280;39611;46.062;8.950;2022-12-17T06:27:25;96109.88;;;4.88;44.85
52441;BME280;39611;46.062;8.950;2022-12-17T06:30:11;96101.91;;;4.78;45.03
52441;BME280;39611;46.062;8.950;2022-12-17T06:33:07;96107.69;;;4.36;52.92
52441;BME280;39611;46.062;8.950;2022-12-17T06:35:54;96114.41;;;4.10;52.59
52441;BME280;39611;46.062;8.950;2022-12-17T06:38:48;96134.03;;;4.29;48.38
52441;BME280;39611;46.062;8.950;2022-12-17T06:41:33;96127.94;;;4.07;54.41
52441;BME280;39611;46.062;8.950;2022-12-17T06:44:27;96126.53;;;3.82;56.36
52441;BME280;39611;46.062;8.950;2022-12-17T06:47:12;96132.00;;;3.81;56.30
52441;BME280;39611;46.062;8.950;2022-12-17T06:50:39;96128.53;;;3.92;53.01
52441;BME280;39611;46.062;8.950;2022-12-17T06:53:26;96151.44;;;4.19;49.47
52441;BME280;39611;46.062;8.950;2022-12-17T06:56:12;96152.59;;;4.28;48.38
52441;BME280;39611;46.062;8.950;2022-12-17T07:13:27;96191.63;;;3.96;50.32
52441;BME280;39611;46.062;8.950;2022-12-17T07:30:10;96223.66;;;4.70;42.35
52441;BME280;39611;46.062;8.950;2022-12-17T07:33:06;96231.03;;;4.56;44.54
52441;BME280;39611;46.062;8.950;2022-12-17T07:35:55;96240.31;;;4.64;43.54
52441;BME280;39611;46.062;8.950;2022-12-17T07:39:02;96229.00;;;4.42;46.65
52441;BME280;39611;46.062;8.950;2022-12-17T07:42:07;96238.44;;;4.43;46.51
52441;BME280;39611;46.062;8.950;2022-12-17T07:45:13;96249.47;;;4.45;45.14
52441;BME280;39611;46.062;8.950;2022-12-17T07:48:17;96264.50;;;4.49;45.72
52441;BME280;39611;46.062;8.950;2022-12-17T07:51:23;96256.72;;;4.54;44.88
52441;BME280;39611;46.062;8.950;2022-12-17T07:54:26;96276.13;;;4.58;43.38
52441;BME280;39611;46.062;8.950;2022-12-17T07:57:14;96278.78;;;4.42;45.77
52441;BME280;39611;46.062;8.950;2022-12-17T08:03:32;96265.59;;;4.36;46.26
52441;BME280;39611;46.062;8.950;2022-12-17T08:06:17;96276.22;;;4.30;47.14
52441;BME280;39611;46.062;8.950;2022-12-17T08:09:23;96283.34;;;4.51;43.46
52441;BME280;39611;46.062;8.950;2022-12-17T08:12:22;96294.66;;;4.52;43.79
52441;BME280;39611;46.062;8.950;2022-12-17T08:15:08;96284.97;;;4.52;42.78
52441;BME280;39611;46.062;8.950;2022-12-17T08:21:40;96301.78;;;4.56;43.53
52441;BME280;39611;46.062;8.950;2022-12-17T08:24:40;96312.81;;;4.75;42.14
52441;BME280;39611;46.062;8.950;2022-12-17T08:31:37;96317.19;;;4.70;43.49
52441;BME280;39611;46.062;8.950;2022-12-17T08:34:55;96312.66;;;4.65;43.49
52441;BME280;39611;46.062;8.950;2022-12-17T08:38:02;96312.03;;;4.75;42.08
52441;BME280;39611;46.062;8.950;2022-12-17T08:41:04;96319.56;;;4.88;41.93
52441;BME280;39611;46.062;8.950;2022-12-17T08:43:49;96312.19;;;4.85;40.29
52441;BME280;39611;46.062;8.950;2022-12-17T08:46:37;96319.22;;;5.01;39.55
52441;BME280;39611;46.062;8.950;2022-12-17T08:52:20;96317.69;;;5.06;40.24
52441;BME280;39611;46.062;8.950;2022-12-17T08:55:06;96332.97;;;5.09;39.83
52441;BME280;39611;46.062;8.950;2022-12-17T08:57:53;96335.81;;;5.07;39.76
52441;BME280;39611;46.062;8.950;2022-12-17T09:00:40;96342.97;;;5.12;39.27
52441;BME280;39611;46.062;8.950;2022-12-17T09:03:29;96348.28;;;5.17;38.35
52441;BME280;39611;46.062;8.950;2022-12-17T09:06:14;96361.88;;;5.14;39.30
52441;BME280;39611;46.062;8.950;2022-12-17T09:09:04;96369.91;;;5.24;38.44
52441;BME280;39611;46.062;8.950;2022-12-17T09:11:58;96379.72;;;5.34;38.21
52441;BME280;39611;46.062;8.950;2022-12-17T09:15:17;96382.66;;;5.37;37.84
52441;BME280;39611;46.062;8.950;2022-12-17T09:18:17;96366.53;;;5.29;37.64
52441;BME280;39611;46.062;8.950;2022-12-17T09:21:31;96380.56;;;5.39;36.62
52441;BME280;39611;46.062;8.950;2022-12-17T09:24:30;96386.16;;;5.43;36.99
52441;BME280;39611;46.062;8.950;2022-12-17T09:27:35;96404.19;;;5.39;39.13
52441;BME280;39611;46.062;8.950;2022-12-17T09:30:33;96407.84;;;5.38;37.12
52441;BME280;39611;46.062;8.950;2022-12-17T09:33:21;96407.09;;;5.60;35.10
52441;BME280;39611;46.062;8.950;2022-12-17T09:36:09;96402.16;;;5.63;36.60
52441;BME280;39611;46.062;8.950;2022-12-17T09:38:54;96412.41;;;5.65;35.49
52441;BME280;39611;46.062;8.950;2022-12-17T09:44:52;96396.34;;;5.61;34.99
52441;BME280;39611;46.062;8.950;2022-12-17T09:47:58;96406.84;;;5.83;34.33
52441;BME280;39611;46.062;8.950;2022-12-17T09:50:54;96413.31;;;5.76;36.32
52441;BME280;39611;46.062;8.950;2022-12-17T09:53:46;96406.84;;;5.83;34.78
52441;BME280;39611;46.062;8.950;2022-12-17T09:56:32;96407.91;;;6.04;32.40
52441;BME280;39611;46.062;8.950;2022-12-17T09:59:24;96391.09;;;6.27;31.78
52441;BME280;39611;46.062;8.950;2022-12-17T10:02:14;96389.59;;;6.31;29.28
52441;BME280;39611;46.062;8.950;2022-12-17T10:05:03;96387.22;;;6.57;27.53
52441;BME280;39611;46.062;8.950;2022-12-17T10:07:49;96387.06;;;6.74;27.37
52441;BME280;39611;46.062;8.950;2022-12-17T10:10:40;96391.00;;;6.71;26.92
52441;BME280;39611;46.062;8.950;2022-12-17T10:13:27;96385.88;;;6.87;25.90
52441;BME280;39611;46.062;8.950;2022-12-17T10:16:34;96387.34;;;6.72;27.73
52441;BME280;39611;46.062;8.950;2022-12-17T10:19:30;96393.66;;;6.76;28.43
52441;BME280;39611;46.062;8.950;2022-12-17T10:22:18;96400.66;;;6.93;26.95
52441;BME280;39611;46.062;8.950;2022-12-17T10:25:21;96403.78;;;6.90;25.76
52441;BME280;39611;46.062;8.950;2022-12-17T10:28:11;96387.78;;;6.96;25.80
52441;BME280;39611;46.062;8.950;2022-12-17T10:30:59;96396.81;;;7.06;25.89
52441;BME280;39611;46.062;8.950;2022-12-17T10:33:45;96405.16;;;6.97;27.22
52441;BME280;39611;46.062;8.950;2022-12-17T10:36:30;96404.63;;;6.95;27.89
52441;BME280;39611;46.062;8.950;2022-12-17T10:39:19;96399.88;;;7.30;25.03
52441;BME280;39611;46.062;8.950;2022-12-17T10:42:30;96396.13;;;7.20;25.68
52441;BME280;39611;46.062;8.950;2022-12-17T10:45:32;96407.66;;;7.14;25.10
52441;BME280;39611;46.062;8.950;2022-12-17T10:48:23;96402.41;;;7.14;26.33
52441;BME280;39611;46.062;8.950;2022-12-17T10:57:25;96415.59;;;7.19;32.25
52441;BME280;39611;46.062;8.950;2022-12-17T11:03:02;96414.47;;;6.78;37.19
52441;BME280;39611;46.062;8.950;2022-12-17T11:05:51;96416.03;;;6.79;36.83
52441;BME280;39611;46.062;8.950;2022-12-17T11:08:39;96412.22;;;6.92;35.08
52441;BME280;39611;46.062;8.950;2022-12-17T11:11:24;96408.03;;;6.96;32.24
52441;BME280;39611;46.062;8.950;2022-12-17T11:14:10;96427.53;;;7.00;32.86
52441;BME280;39611;46.062;8.950;2022-12-17T11:17:04;96420.59;;;6.89;33.63
52441;BME280;39611;46.062;8.950;2022-12-17T11:22:51;96419.25;;;6.86;29.81
52441;BME280;39611;46.062;8.950;2022-12-17T11:25:58;96412.38;;;6.80;30.70
52441;BME280;39611;46.062;8.950;2022-12-17T11:28:44;96421.47;;;6.67;34.21
52441;BME280;39611;46.062;8.950;2022-12-17T11:38:22;96443.16;;;6.85;45.09
52441;BME280;39611;46.062;8.950;2022-12-17T11:41:16;96438.81;;;6.68;46.99
52441;BME280;39611;46.062;8.950;2022-12-17T11:44:06;96446.41;;;6.65;48.04
52441;BME280;39611;46.062;8.950;2022-12-17T11:50:31;96443.41;;;6.56;49.87
52441;BME280;39611;46.062;8.950;2022-12-17T11:56:29;96438.50;;;6.38;51.21
52441;BME280;39611;46.062;8.950;2022-12-17T12:05:34;96455.56;;;6.35;49.80
52441;BME280;39611;46.062;8.950;2022-12-17T12:08:31;96449.78;;;6.33;50.70
52441;BME280;39611;46.062;8.950;2022-12-17T12:11:39;96447.25;;;6.21;52.37
52441;BME280;39611;46.062;8.950;2022-12-17T12:17:38;96449.22;;;6.09;55.07
52441;BME280;39611;46.062;8.950;2022-12-17T12:23:50;96440.69;;;5.97;55.75
52441;BME280;39611;46.062;8.950;2022-12-17T12:29:50;96447.91;;;5.89;55.49
52441;BME280;39611;46.062;8.950;2022-12-17T12:32:48;96456.72;;;6.00;53.03
52441;BME280;39611;46.062;8.950;2022-12-17T12:35:37;96455.44;;;6.03;52.82
52441;BME280;39611;46.062;8.950;2022-12-17T12:38:29;96450.88;;;6.15;53.53
52441;BME280;39611;46.062;8.950;2022-12-17T12:41:32;96454.34;;;6.21;52.53
52441;BME280;39611;46.062;8.950;2022-12-17T12:44:52;96455.19;;;6.26;51.62
52441;BME280;39611;46.062;8.950;2022-12-17T12:50:58;96460.69;;;6.25;53.07
52441;BME280;39611;46.062;8.950;2022-12-17T12:53:56;96459.59;;;6.21;54.36
52441;BME280;39611;46.062;8.950;2022-12-17T12:56:41;96455.88;;;6.17;54.03
52441;BME280;39611;46.062;8.950;2022-12-17T12:59:31;96467.00;;;6.24;52.53
52441;BME280;39611;46.062;8.950;2022-12-17T13:02:27;96466.75;;;6.25;53.99
52441;BME280;39611;46.062;8.950;2022-12-17T13:05:27;96476.09;;;6.16;52.42
52441;BME280;39611;46.062;8.950;2022-12-17T13:10:34;96476.09;;;6.16;52.50
52441;BME280;39611;46.062;8.950;2022-12-17T13:13:34;96474.63;;;6.25;51.82
52441;BME280;39611;46.062;8.950;2022-12-17T13:19:40;96490.13;;;6.27;52.94
52441;BME280;39611;46.062;8.950;2022-12-17T13:24:51;96498.22;;;6.20;54.46
52441;BME280;39611;46.062;8.950;2022-12-17T13:36:16;96518.28;;;6.09;57.79
52441;BME280;39611;46.062;8.950;2022-12-17T13:41:29;96511.22;;;6.10;53.26
52441;BME280;39611;46.062;8.950;2022-12-17T13:44:00;96513.84;;;6.10;54.31
52441;BME280;39611;46.062;8.950;2022-12-17T13:46:33;96513.03;;;6.09;51.90
52441;BME280;39611;46.062;8.950;2022-12-17T13:49:03;96523.31;;;6.11;53.66
52441;BME280;39611;46.062;8.950;2022-12-17T13:51:33;96526.91;;;6.05;54.62
52441;BME280;39611;46.062;8.950;2022-12-17T13:54:03;96533.09;;;5.99;54.31
52441;BME280;39611;46.062;8.950;2022-12-17T13:56:33;96539.97;;;6.00;56.43
52441;BME280;39611;46.062;8.950;2022-12-17T13:59:01;96546.97;;;5.94;57.11
52441;BME280;39611;46.062;8.950;2022-12-17T14:01:43;96547.09;;;5.87;56.81
52441;BME280;39611;46.062;8.950;2022-12-17T14:04:27;96544.47;;;5.87;57.23
52441;BME280;39611;46.062;8.950;2022-12-17T14:07:01;96553.31;;;5.81;58.67
52441;BME280;39611;46.062;8.950;2022-12-17T14:09:34;96557.47;;;5.77;59.41
52441;BME280;39611;46.062;8.950;2022-12-17T14:12:03;96560.88;;;5.78;59.65
52441;BME280;39611;46.062;8.950;2022-12-17T14:15:16;96577.97;;;5.80;61.98
52441;BME280;39611;46.062;8.950;2022-12-17T14:17:44;96577.91;;;5.75;62.24
52441;BME280;39611;46.062;8.950;2022-12-17T14:20:20;96584.75;;;5.76;63.45
52441;BME280;39611;46.062;8.950;2022-12-17T14:22:53;96590.94;;;5.70;63.83
52441;BME280;39611;46.062;8.950;2022-12-17T14:25:22;96597.41;;;5.79;60.08
52441;BME280;39611;46.062;8.950;2022-12-17T14:27:56;96596.63;;;5.96;58.75
52441;BME280;39611;46.062;8.950;2022-12-17T14:30:39;96599.25;;;5.96;61.19
52441;BME280;39611;46.062;8.950;2022-12-17T14:33:34;96605.66;;;5.88;62.55
52441;BME280;39611;46.062;8.950;2022-12-17T14:36:20;96609.47;;;5.80;60.96
52441;BME280;39611;46.062;8.950;2022-12-17T14:38:55;96617.25;;;5.75;63.94
52441;BME280;39611;46.062;8.950;2022-12-17T14:41:23;96621.78;;;5.63;65.23
52441;BME280;39611;46.062;8.950;2022-12-17T14:44:20;96630.13;;;5.60;66.37
52441;BME280;39611;46.062;8.950;2022-12-17T14:46:48;96627.75;;;5.58;66.87
52441;BME280;39611;46.062;8.950;2022-12-17T14:49:17;96642.72;;;5.58;67.61
52441;BME280;39611;46.062;8.950;2022-12-17T14:51:46;96651.38;;;5.58;65.18
52441;BME280;39611;46.062;8.950;2022-12-17T14:56:52;96661.69;;;5.48;67.03
52441;BME280;39611;46.062;8.950;2022-12-17T14:59:36;96663.69;;;5.29;71.01
52441;BME280;39611;46.062;8.950;2022-12-17T15:02:07;96674.13;;;5.24;71.07
52441;BME280;39611;46.062;8.950;2022-12-17T15:04:39;96679.59;;;5.22;71.00
52441;BME280;39611;46.062;8.950;2022-12-17T15:07:06;96684.63;;;5.24;68.75
52441;BME280;39611;46.062;8.950;2022-12-17T15:09:38;96698.06;;;5.16;69.43
52441;BME280;39611;46.062;8.950;2022-12-17T15:12:07;96705.19;;;5.03;72.47
52441;BME280;39611;46.062;8.950;2022-12-17T15:14:39;96704.72;;;4.95;71.90
52441;BME280;39611;46.062;8.950;2022-12-17T15:17:06;96702.78;;;4.90;74.10
52441;BME280;39611;46.062;8.950;2022-12-17T15:19:38;96711.47;;;4.79;75.33
52441;BME280;39611;46.062;8.950;2022-12-17T15:22:14;96722.44;;;4.76;76.77
52441;BME280;39611;46.062;8.950;2022-12-17T15:24:43;96710.34;;;4.63;78.31
52441;BME280;39611;46.062;8.950;2022-12-17T15:27:12;96713.44;;;4.36;79.29
52441;BME280;39611;46.062;8.950;2022-12-17T15:29:39;96726.63;;;4.30;80.56
52441;BME280;39611;46.062;8.950;2022-12-17T15:32:06;96737.91;;;4.30;81.33
52441;BME280;39611;46.062;8.950;2022-12-17T15:34:33;96740.28;;;4.20;81.10
52441;BME280;39611;46.062;8.950;2022-12-17T15:36:59;96740.75;;;4.29;81.37
52441;BME280;39611;46.062;8.950;2022-12-17T15:39:26;96747.34;;;4.20;80.59
52441;BME280;39611;46.062;8.950;2022-12-17T15:42:03;96754.88;;;4.40;77.92
52441;BME280;39611;46.062;8.950;2022-12-17T15:44:48;96753.41;;;4.44;74.61
52441;BME280;39611;46.062;8.950;2022-12-17T15:47:18;96759.78;;;4.36;76.49
52441;BME280;39611;46.062;8.950;2022-12-17T15:49:47;96763.09;;;4.31;75.84
52441;BME280;39611;46.062;8.950;2022-12-17T15:52:13;96769.97;;;4.14;78.27
52441;BME280;39611;46.062;8.950;2022-12-17T15:54:41;96769.16;;;4.02;79.58
52441;BME280;39611;46.062;8.950;2022-12-17T15:57:08;96767.16;;;3.85;81.25
52441;BME280;39611;46.062;8.950;2022-12-17T15:59:42;96769.47;;;3.93;79.24
52441;BME280;39611;46.062;8.950;2022-12-17T16:02:09;96784.31;;;4.00;80.40
52441;BME280;39611;46.062;8.950;2022-12-17T16:04:36;96794.84;;;3.93;80.64
52441;BME280;39611;46.062;8.950;2022-12-17T16:07:04;96786.94;;;3.81;81.22
52441;BME280;39611;46.062;8.950;2022-12-17T16:09:30;96797.41;;;3.81;80.94
52441;BME280;39611;46.062;8.950;2022-12-17T16:12:01;96795.38;;;3.83;81.61
52441;BME280;39611;46.062;8.950;2022-12-17T16:14:27;96801.50;;;3.77;82.57
52441;BME280;39611;46.062;8.950;2022-12-17T16:16:54;96799.13;;;3.57;83.05
52441;BME280;39611;46.062;8.950;2022-12-17T16:19:20;96805.84;;;3.53;82.51
52441;BME280;39611;46.062;8.950;2022-12-17T16:21:47;96813.81;;;3.40;83.64
52441;BME280;39611;46.062;8.950;2022-12-17T16:24:14;96820.94;;;3.33;83.51
52441;BME280;39611;46.062;8.950;2022-12-17T16:26:40;96830.53;;;3.39;82.26
52441;BME280;39611;46.062;8.950;2022-12-17T16:29:07;96831.16;;;3.34;83.25
52441;BME280;39611;46.062;8.950;2022-12-17T16:31:34;96834.38;;;3.36;83.05
52441;BME280;39611;46.062;8.950;2022-12-17T16:34:00;96838.59;;;3.56;83.28
52441;BME280;39611;46.062;8.950;2022-12-17T16:36:27;96836.47;;;3.64;79.90
52441;BME280;39611;46.062;8.950;2022-12-17T16:38:54;96846.16;;;3.45;81.94
52441;BME280;39611;46.062;8.950;2022-12-17T16:41:20;96839.69;;;3.30;83.00
52441;BME280;39611;46.062;8.950;2022-12-17T16:43:47;96847.44;;;3.36;82.78
52441;BME280;39611;46.062;8.950;2022-12-17T16:46:32;96859.44;;;3.25;83.93
52441;BME280;39611;46.062;8.950;2022-12-17T16:49:05;96856.97;;;3.31;83.78
52441;BME280;39611;46.062;8.950;2022-12-17T16:51:32;96863.44;;;3.46;82.97
52441;BME280;39611;46.062;8.950;2022-12-17T16:54:03;96869.28;;;3.23;84.28
52441;BME280;39611;46.062;8.950;2022-12-17T16:56:32;96872.38;;;3.39;83.22
52441;BME280;39611;46.062;8.950;2022-12-17T16:59:05;96872.47;;;3.50;83.64
52441;BME280;39611;46.062;8.950;2022-12-17T17:01:34;96882.97;;;3.25;85.08
52441;BME280;39611;46.062;8.950;2022-12-17T17:04:04;96890.81;;;3.25;85.18
52441;BME280;39611;46.062;8.950;2022-12-17T17:06:32;96881.41;;;3.18;85.91
52441;BME280;39611;46.062;8.950;2022-12-17T17:09:32;96896.16;;;3.12;86.84
52441;BME280;39611;46.062;8.950;2022-12-17T17:12:20;96901.47;;;3.24;85.27
52441;BME280;39611;46.062;8.950;2022-12-17T17:15:09;96890.47;;;3.40;85.47
52441;BME280;39611;46.062;8.950;2022-12-17T17:17:55;96898.00;;;3.30;85.87
52441;BME280;39611;46.062;8.950;2022-12-17T17:20:41;96913.84;;;3.35;85.88
52441;BME280;39611;46.062;8.950;2022-12-17T17:23:23;96911.25;;;3.10;86.89
52441;BME280;39611;46.062;8.950;2022-12-17T17:25:56;96922.47;;;3.17;86.35
52441;BME280;39611;46.062;8.950;2022-12-17T17:28:24;96924.03;;;3.18;86.31
52441;BME280;39611;46.062;8.950;2022-12-17T17:30:57;96919.25;;;3.15;85.44
52441;BME280;39611;46.062;8.950;2022-12-17T17:33:34;96932.94;;;3.11;84.80
52441;BME280;39611;46.062;8.950;2022-12-17T17:36:12;96937.38;;;3.10;85.87
52441;BME280;39611;46.062;8.950;2022-12-17T17:38:40;96943.81;;;3.14;86.48
52441;BME280;39611;46.062;8.950;2022-12-17T17:41:09;96956.00;;;3.20;86.53
52441;BME280;39611;46.062;8.950;2022-12-17T17:43:36;96955.25;;;3.13;86.42